Ira, Vermont
Current Conditions -  °F | °C
As of 4:35 PM on Thursday 23 Oct 2014 (Local Time) from KRUT Reporting Station
Overcast Overcast  
Wind Chill: 37°   Ceiling: 600
Heat Index: 43°   Visibility: 9mi
Dew Point: 41°   Wind: 10mph
Humidity: 93%   Direction: 340°NNW
Pressure: 29.82"   Gusts: 16mph
Location:  43.5746°N, 73.0567°W
Report Text: KRUT 232035Z 34009G14KT 9SM OVC006 06/05 A2982 RMK AO1
Loading
Personal Weather Stations






























Interactive Weather Map
Tropical Storm Tracking
New forecast layout! Learn more

10-Day Weather Forecast

Advertisements
Track Severe Weather on mobile